Time;durP1;ratioP1;P1;durP2;ratioP2;P2;SDS_P1;SDS_P2;PMS_P1;PMS_P2;Temp;Humidity;BMP_temperature;BMP_pressure;BME280_temperature;BME280_humidity;BME280_pressure;Samples;Min_cycle;Max_cycle;Signal;HPM_P1;HPM_P2
2022/07/05 00:01:33;;;;;;;8.60;6.40;;;;;;;20.01;97.58;93299.16;4991683;28;20054;-78
2022/07/05 00:03:59;;;;;;;8.65;6.20;;;;;;;19.92;98.21;93292.94;4991362;28;20050;-79
2022/07/05 00:06:27;;;;;;;8.35;6.40;;;;;;;19.84;98.51;93296.06;5006041;28;20112;-78
2022/07/05 00:08:54;;;;;;;9.27;6.20;;;;;;;19.69;99.23;93281.25;5010637;28;20096;-78
2022/07/05 00:11:21;;;;;;;9.07;6.28;;;;;;;19.65;100.00;93295.84;5010804;28;20049;-78
2022/07/05 00:13:48;;;;;;;15.18;6.50;;;;;;;19.58;100.00;93296.16;5010792;28;20045;-78
2022/07/05 00:16:14;;;;;;;8.13;6.18;;;;;;;19.52;100.00;93289.38;5011370;28;20050;-78
2022/07/05 00:18:41;;;;;;;8.43;6.15;;;;;;;19.49;100.00;93288.09;5010499;28;20453;-78
2022/07/05 00:21:08;;;;;;;8.32;6.28;;;;;;;19.55;100.00;93289.63;5010733;28;20104;-79
2022/07/05 00:23:36;;;;;;;9.13;6.45;;;;;;;19.50;100.00;93295.63;5010603;28;20042;-77
2022/07/05 00:26:03;;;;;;;8.93;6.32;;;;;;;19.29;100.00;93281.06;5010153;28;20054;-77
2022/07/05 00:28:29;;;;;;;8.23;6.60;;;;;;;19.26;100.00;93289.41;5010155;28;20105;-77
2022/07/05 00:30:56;;;;;;;8.65;6.25;;;;;;;19.27;100.00;93281.34;5010144;28;20104;-77
2022/07/05 00:33:23;;;;;;;9.60;6.70;;;;;;;19.29;100.00;93276.63;5010307;28;20041;-77
2022/07/05 00:35:53;;;;;;;9.80;6.53;;;;;;;19.29;100.00;93276.63;5010354;28;20061;-77
2022/07/05 00:38:19;;;;;;;9.68;6.70;;;;;;;19.21;100.00;93264.16;5010360;28;20704;-77
2022/07/05 00:40:48;;;;;;;9.95;6.38;;;;;;;19.29;100.00;93275.84;5010055;28;21001;-77
2022/07/05 00:43:14;;;;;;;9.07;6.40;;;;;;;19.30;100.00;93280.81;5009976;28;20092;-77
2022/07/05 00:45:41;;;;;;;8.98;6.63;;;;;;;19.25;100.00;93265.19;5009485;28;20104;-77
2022/07/05 00:48:08;;;;;;;12.02;7.22;;;;;;;19.32;100.00;93276.13;5010053;28;20096;-78
2022/07/05 00:50:35;;;;;;;8.43;6.28;;;;;;;19.22;100.00;93266.47;5010172;28;20050;-77
2022/07/05 00:53:02;;;;;;;8.68;6.68;;;;;;;19.23;100.00;93281.09;5009309;28;20050;-78
2022/07/05 00:55:29;;;;;;;7.65;6.55;;;;;;;19.21;100.00;93283.16;5010098;28;20042;-78
2022/07/05 00:57:57;;;;;;;8.02;5.90;;;;;;;19.13;100.00;93280.28;5009875;28;20046;-78
2022/07/05 01:00:24;;;;;;;19.85;7.43;;;;;;;18.98;100.00;93268.03;5007475;28;20045;-78
2022/07/05 01:02:51;;;;;;;7.80;6.28;;;;;;;18.94;100.00;93278.19;5010020;28;20513;-78
2022/07/05 01:05:18;;;;;;;8.02;6.15;;;;;;;18.91;100.00;93279.50;5009615;28;20046;-78
2022/07/05 01:07:45;;;;;;;8.43;6.50;;;;;;;18.91;100.00;93281.31;5010119;28;20046;-78
2022/07/05 01:10:11;;;;;;;11.00;7.50;;;;;;;18.80;100.00;93281.28;5010063;28;20464;-78
2022/07/05 01:12:40;;;;;;;9.50;6.85;;;;;;;18.79;100.00;93284.94;5009499;28;20045;-78
2022/07/05 01:15:09;;;;;;;8.15;6.32;;;;;;;18.87;100.00;93278.44;5009494;28;20133;-77
2022/07/05 01:17:37;;;;;;;8.77;6.30;;;;;;;18.88;100.00;93279.25;5009737;28;20052;-77
2022/07/05 01:20:06;;;;;;;8.80;5.78;;;;;;;18.91;100.00;93282.09;5009088;28;20056;-77
2022/07/05 01:22:50;;;;;;;10.10;6.57;;;;;;;18.95;100.00;93282.34;5009604;28;20078;-77
2022/07/05 01:25:17;;;;;;;10.13;5.85;;;;;;;18.90;100.00;93287.56;5009349;28;20584;-77
2022/07/05 01:27:44;;;;;;;7.53;6.03;;;;;;;18.80;100.00;93289.09;5008885;28;20085;-77
2022/07/05 01:30:11;;;;;;;10.98;6.70;;;;;;;18.70;100.00;93292.47;5009175;28;20494;-77
2022/07/05 01:32:38;;;;;;;9.05;6.10;;;;;;;18.66;100.00;93291.41;5009161;28;20045;-77
2022/07/05 01:35:06;;;;;;;7.35;5.82;;;;;;;18.61;100.00;93293.25;5009585;28;20136;-77
2022/07/05 01:37:32;;;;;;;8.05;6.50;;;;;;;18.51;100.00;93286.97;5009616;28;20052;-78
2022/07/05 01:40:03;;;;;;;9.25;6.05;;;;;;;18.45;100.00;93275.00;5009167;28;20050;-77
2022/07/05 01:42:30;;;;;;;9.40;7.18;;;;;;;18.58;100.00;93281.53;5009273;28;20045;-78
2022/07/05 01:44:57;;;;;;;8.75;6.25;;;;;;;18.52;100.00;93280.72;5008212;28;20506;-77
2022/07/05 01:47:24;;;;;;;9.90;6.55;;;;;;;18.51;100.00;93288.81;5009204;28;20104;-78
2022/07/05 01:49:56;;;;;;;10.05;5.97;;;;;;;18.46;100.00;93283.59;5009017;28;20096;-78
2022/07/05 01:52:25;;;;;;;7.43;6.07;;;;;;;18.52;100.00;93287.78;5009157;28;20059;-77
2022/07/05 01:54:52;;;;;;;9.38;6.32;;;;;;;18.50;100.00;93284.63;5009270;28;20366;-77
2022/07/05 01:57:20;;;;;;;8.50;6.75;;;;;;;18.49;100.00;93294.28;5009076;28;20050;-77
2022/07/05 01:59:47;;;;;;;10.60;6.50;;;;;;;18.47;100.00;93290.34;5009226;28;20462;-77
2022/07/05 02:02:14;;;;;;;8.25;5.97;;;;;;;18.42;100.00;93289.31;5008949;28;20490;-77
2022/07/05 02:04:42;;;;;;;8.90;5.88;;;;;;;18.40;100.00;93280.19;5010306;28;20127;-78
2022/07/05 02:07:09;;;;;;;7.72;5.95;;;;;;;18.39;100.00;93284.63;5013480;28;20442;-77
2022/07/05 02:09:37;;;;;;;9.27;6.65;;;;;;;18.29;100.00;93279.41;5012737;28;20563;-77
2022/07/05 02:12:05;;;;;;;7.93;5.82;;;;;;;18.37;100.00;93278.13;5010626;28;20104;-77
2022/07/05 02:14:34;;;;;;;8.90;6.07;;;;;;;18.37;100.00;93278.88;5012987;28;20042;-77
2022/07/05 02:17:01;;;;;;;9.07;6.13;;;;;;;18.38;100.00;93277.06;5012785;28;21155;-77
2022/07/05 02:19:27;;;;;;;7.55;5.43;;;;;;;18.37;100.00;93280.72;5012821;28;20046;-77
2022/07/05 02:21:54;;;;;;;8.40;5.88;;;;;;;18.39;100.00;93279.44;5012870;28;20042;-77
2022/07/05 02:24:21;;;;;;;9.10;5.78;;;;;;;18.37;100.00;93278.88;5012153;28;20391;-77
2022/07/05 02:26:49;;;;;;;8.68;6.03;;;;;;;18.34;100.00;93274.22;5012723;28;20096;-77
2022/07/05 02:29:15;;;;;;;6.63;5.45;;;;;;;18.16;100.00;93260.63;5012488;28;20045;-77
2022/07/05 02:31:43;;;;;;;8.20;6.30;;;;;;;18.22;100.00;93282.22;5012362;28;20092;-77
2022/07/05 02:34:10;;;;;;;7.90;5.80;;;;;;;18.15;100.00;93287.66;5012494;28;20494;-80
2022/07/05 02:36:37;;;;;;;7.45;5.03;;;;;;;18.11;100.00;93284.03;5012981;28;20057;-79
2022/07/05 02:39:04;;;;;;;12.20;6.85;;;;;;;18.05;100.00;93292.03;5012156;28;20099;-79
2022/07/05 02:41:31;;;;;;;10.43;6.50;;;;;;;17.97;100.00;93294.03;5012524;28;20042;-77
2022/07/05 02:43:57;;;;;;;9.15;6.20;;;;;;;17.92;100.00;93293.25;5012052;28;20553;-77
2022/07/05 02:46:24;;;;;;;10.57;7.20;;;;;;;17.80;100.00;93286.44;5009217;28;20046;-77
2022/07/05 02:48:53;;;;;;;11.32;6.97;;;;;;;17.78;100.00;93298.94;5011946;28;20093;-78
2022/07/05 02:51:20;;;;;;;11.52;6.63;;;;;;;17.77;100.00;93297.34;5012152;28;20092;-77
2022/07/05 02:53:46;;;;;;;10.90;6.50;;;;;;;17.76;100.00;93309.56;5012530;28;20530;-78
2022/07/05 02:56:13;;;;;;;10.52;6.80;;;;;;;17.76;100.00;93304.38;5012425;28;20092;-78
2022/07/05 02:58:40;;;;;;;8.80;5.85;;;;;;;17.79;100.00;93302.28;5011885;28;20071;-78
2022/07/05 03:01:07;;;;;;;9.43;6.50;;;;;;;17.80;100.00;93306.44;5012137;28;20046;-78
2022/07/05 03:03:34;;;;;;;8.73;5.97;;;;;;;17.80;100.00;93309.84;5012136;28;20092;-77
2022/07/05 03:06:02;;;;;;;8.63;6.00;;;;;;;17.78;100.00;93314.50;5011895;28;20050;-78
2022/07/05 03:08:28;;;;;;;8.77;6.47;;;;;;;17.79;100.00;93310.09;5012146;28;20489;-79
2022/07/05 03:10:55;;;;;;;8.35;6.28;;;;;;;17.80;100.00;93309.84;5012303;28;20045;-78
2022/07/05 03:13:22;;;;;;;9.80;6.07;;;;;;;17.80;100.00;93307.25;5011936;28;20045;-78
2022/07/05 03:15:49;;;;;;;9.00;6.32;;;;;;;17.80;100.00;93306.44;5011209;28;20549;-78
2022/07/05 03:18:15;;;;;;;8.43;5.70;;;;;;;17.81;100.00;93308.03;5011920;28;20513;-78
2022/07/05 03:20:42;;;;;;;8.93;6.70;;;;;;;17.73;100.00;93306.69;5011794;28;20046;-78
2022/07/05 03:23:10;;;;;;;8.77;6.57;;;;;;;17.56;100.00;93281.66;5011869;28;20038;-77
2022/07/05 03:25:37;;;;;;;10.40;6.82;;;;;;;17.74;100.00;93300.44;5011711;28;20096;-79
2022/07/05 03:28:04;;;;;;;10.90;7.18;;;;;;;17.74;100.00;93301.22;5011728;28;20486;-78
2022/07/05 03:30:31;;;;;;;9.52;5.88;;;;;;;17.81;100.00;93308.78;5012167;28;20596;-78
2022/07/05 03:32:58;;;;;;;9.63;6.53;;;;;;;17.80;100.00;93298.66;5011567;28;20092;-78
2022/07/05 03:35:25;;;;;;;11.05;6.88;;;;;;;17.85;100.00;93301.28;5011865;28;20053;-78
2022/07/05 03:37:51;;;;;;;9.88;6.25;;;;;;;17.83;100.00;93296.31;5011748;28;20053;-78
2022/07/05 03:40:19;;;;;;;8.75;5.75;;;;;;;17.85;100.00;93304.66;5011802;28;20104;-78
2022/07/05 03:42:46;;;;;;;9.32;6.13;;;;;;;17.88;100.00;93295.59;5009203;28;20108;-79
2022/07/05 03:45:13;;;;;;;8.70;5.57;;;;;;;17.89;100.00;93292.75;5011339;28;20100;-79
2022/07/05 03:47:40;;;;;;;7.78;5.93;;;;;;;17.85;100.00;93289.06;5011303;28;20383;-79
2022/07/05 03:50:07;;;;;;;9.02;6.43;;;;;;;17.87;100.00;93284.41;5011713;28;20096;-79
2022/07/05 03:52:34;;;;;;;9.27;5.90;;;;;;;17.68;100.00;93252.88;5011954;28;20046;-78
2022/07/05 03:55:01;;;;;;;9.77;6.03;;;;;;;17.85;100.00;93280.50;5011700;28;20104;-78
2022/07/05 03:57:30;;;;;;;8.90;6.40;;;;;;;17.93;100.00;93277.41;5011744;28;20046;-78
2022/07/05 03:59:57;;;;;;;10.32;7.10;;;;;;;17.96;100.00;93283.94;5011809;28;20096;-78
2022/07/05 04:02:24;;;;;;;15.20;7.22;;;;;;;17.92;100.00;93288.06;5011489;28;20050;-78
2022/07/05 04:04:50;;;;;;;16.13;7.28;;;;;;;17.88;100.00;93277.41;5009577;28;20411;-78
2022/07/05 04:07:17;;;;;;;13.88;8.07;;;;;;;17.94;100.00;93289.38;5000577;28;20053;-78
2022/07/05 04:09:44;;;;;;;11.27;7.75;;;;;;;17.97;100.00;93291.44;5011479;28;20073;-78
2022/07/05 04:12:11;;;;;;;10.43;7.20;;;;;;;17.98;100.00;93292.25;5011659;28;20076;-78
2022/07/05 04:14:39;;;;;;;17.17;8.38;;;;;;;18.04;100.00;93291.22;5011667;28;20050;-78
2022/07/05 04:17:05;;;;;;;12.70;7.25;;;;;;;18.08;100.00;93292.31;5011085;28;20054;-78
2022/07/05 04:19:32;;;;;;;10.95;6.57;;;;;;;18.01;100.00;93276.16;5011471;28;20046;-78
2022/07/05 04:21:59;;;;;;;11.18;7.20;;;;;;;18.11;100.00;93291.81;5011320;28;20058;-78
2022/07/05 04:24:26;;;;;;;10.75;7.15;;;;;;;18.17;100.00;93295.22;5011766;28;20564;-78
2022/07/05 04:26:53;;;;;;;13.13;7.60;;;;;;;18.21;100.00;93292.88;5010574;28;20131;-78
2022/07/05 04:29:20;;;;;;;11.38;7.35;;;;;;;18.29;100.00;93290.56;5010938;28;20558;-78
2022/07/05 04:31:48;;;;;;;10.82;7.22;;;;;;;18.33;100.00;93285.63;5010874;28;20553;-78
2022/07/05 04:34:14;;;;;;;13.65;7.45;;;;;;;18.52;100.00;93287.78;5011140;28;20053;-78
2022/07/05 04:36:41;;;;;;;10.43;6.90;;;;;;;18.62;100.00;93287.00;5010675;28;20054;-78
2022/07/05 04:39:09;;;;;;;13.43;7.65;;;;;;;18.63;100.00;93275.56;5011245;28;20045;-78
2022/07/05 04:41:35;;;;;;;12.75;7.75;;;;;;;18.77;100.00;93286.25;5011000;28;20049;-78
2022/07/05 04:44:02;;;;;;;11.60;7.07;;;;;;;18.83;100.00;93282.59;5010851;28;20042;-78
2022/07/05 04:46:29;;;;;;;10.30;6.63;;;;;;;18.90;100.00;93292.75;5010482;28;20505;-78
2022/07/05 04:48:57;;;;;;;10.27;7.25;;;;;;;18.90;100.00;93290.16;5010330;28;20077;-78
2022/07/05 04:51:24;;;;;;;11.60;7.30;;;;;;;18.95;100.00;93288.34;5010339;28;20502;-78
2022/07/05 04:53:51;;;;;;;11.13;8.18;;;;;;;19.09;100.00;93288.66;5010596;28;20141;-78
2022/07/05 04:56:18;;;;;;;11.07;7.45;;;;;;;19.26;100.00;93289.41;5010138;28;20486;-78
2022/07/05 04:58:44;;;;;;;11.95;7.60;;;;;;;19.34;100.00;93288.88;5010148;28;20497;-78
2022/07/05 05:01:11;;;;;;;12.93;8.23;;;;;;;19.43;100.00;93296.94;5010547;28;20498;-78
2022/07/05 05:03:38;;;;;;;10.82;6.63;;;;;;;19.45;100.00;93287.03;5010399;28;20494;-78
2022/07/05 05:06:06;;;;;;;11.18;8.10;;;;;;;19.57;100.00;93300.56;4998004;28;20062;-78
2022/07/05 05:08:33;;;;;;;12.45;8.07;;;;;;;19.64;100.00;93310.72;5009450;28;20116;-78
2022/07/05 05:11:00;;;;;;;11.68;7.80;;;;;;;19.60;100.00;93304.47;5010684;28;20053;-78
2022/07/05 05:13:26;;;;;;;13.75;8.65;;;;;;;19.65;100.00;93286.22;5010320;28;20045;-78
2022/07/05 05:15:53;;;;;;;17.75;10.25;;;;;;;19.92;100.00;93299.97;5010717;28;20046;-78
2022/07/05 05:18:24;;;;;;;13.20;9.63;;;;;;;20.06;100.00;93302.81;5010371;28;20050;-79
2022/07/05 05:20:50;;;;;;;20.75;12.35;;;;;;;20.05;100.00;93304.66;5010364;28;20060;-79
2022/07/05 05:23:19;;;;;;;25.02;13.15;;;;;;;20.21;98.54;93294.13;5010215;28;20049;-79
2022/07/05 05:25:45;;;;;;;24.23;14.10;;;;;;;20.38;96.70;93289.38;5010031;28;20100;-79
2022/07/05 05:28:12;;;;;;;25.75;13.90;;;;;;;20.53;96.11;93296.34;5010205;28;20050;-79
2022/07/05 05:30:39;;;;;;;24.40;14.57;;;;;;;20.68;94.90;93292.06;5010284;28;20096;-78
2022/07/05 05:33:06;;;;;;;25.52;13.82;;;;;;;20.86;94.02;93288.06;5010425;28;20050;-79
2022/07/05 05:35:32;;;;;;;21.65;11.73;;;;;;;21.08;93.31;93289.47;5010340;28;20038;-78
2022/07/05 05:37:59;;;;;;;21.48;11.35;;;;;;;21.32;91.43;93286.94;5009665;28;20116;-78
2022/07/05 05:40:27;;;;;;;22.88;11.55;;;;;;;21.54;88.47;93290.94;5009403;28;20050;-78
2022/07/05 05:42:56;;;;;;;17.02;10.02;;;;;;;21.27;88.77;93283.56;5009858;28;20050;-79
2022/07/05 05:45:23;;;;;;;23.70;10.38;;;;;;;21.66;88.83;93292.38;5009937;28;20502;-79
2022/07/05 05:47:51;;;;;;;19.85;10.88;;;;;;;21.97;87.36;93284.22;5009955;28;20465;-79
2022/07/05 05:50:22;;;;;;;17.65;10.25;;;;;;;22.33;84.62;93291.66;5010286;28;20046;-79
2022/07/05 05:52:50;;;;;;;15.82;10.18;;;;;;;22.53;82.99;93282.78;5010202;28;20042;-79
2022/07/05 05:55:17;;;;;;;17.25;9.82;;;;;;;22.83;80.47;93296.50;5009674;28;20054;-79
2022/07/05 05:57:45;;;;;;;15.68;9.18;;;;;;;23.02;79.55;93294.94;5009373;28;20449;-79
2022/07/05 06:00:14;;;;;;;16.17;9.88;;;;;;;22.90;76.38;93296.16;5009543;28;20046;-79
2022/07/05 06:02:41;;;;;;;14.43;9.75;;;;;;;23.05;77.04;93299.59;5009346;28;20056;-80
2022/07/05 06:05:09;;;;;;;18.98;11.32;;;;;;;23.11;76.01;93302.91;5004891;28;20038;-81
2022/07/05 06:07:47;;;;;;;25.60;12.30;;;;;;;23.34;78.13;93302.03;5000507;28;20468;-83
2022/07/05 06:10:22;;;;;;;22.50;11.75;;;;;;;22.86;77.23;93289.16;5009171;28;20490;-81
2022/07/05 06:12:52;;;;;;;20.85;12.10;;;;;;;23.38;77.54;93293.59;5009654;28;20100;-81
2022/07/05 06:15:19;;;;;;;26.85;13.23;;;;;;;23.57;74.65;93298.78;5009130;28;20494;-81
2022/07/05 06:17:46;;;;;;;25.83;12.68;;;;;;;23.76;75.38;93306.59;5009523;28;20120;-81
2022/07/05 06:20:14;;;;;;;24.55;12.65;;;;;;;24.24;75.63;93302.81;5009247;28;20046;-80
2022/07/05 06:22:41;;;;;;;25.33;12.70;;;;;;;24.59;71.43;93298.97;5008978;28;20100;-81
2022/07/05 06:25:08;;;;;;;21.33;10.00;;;;;;;24.89;70.35;93296.75;5009417;28;20441;-81
2022/07/05 06:27:39;;;;;;;22.40;11.23;;;;;;;25.20;67.20;93303.94;5009706;28;20046;-81
2022/07/05 06:30:09;;;;;;;21.80;10.90;;;;;;;24.73;67.34;93304.19;5009488;28;20050;-82
2022/07/05 06:32:36;;;;;;;25.88;14.60;;;;;;;24.53;70.21;93295.69;4991254;28;20053;-81
2022/07/05 06:35:04;;;;;;;23.38;13.70;;;;;;;24.58;70.40;93289.53;5007873;28;20058;-81
2022/07/05 06:37:42;;;;;;;22.30;13.77;;;;;;;24.86;71.17;93303.41;5009278;28;20058;-82
2022/07/05 06:40:10;;;;;;;24.63;14.40;;;;;;;25.04;69.69;93301.66;5008933;28;20144;-82
2022/07/05 06:42:37;;;;;;;30.55;14.57;;;;;;;25.45;67.21;93293.88;5009423;28;20096;-81
2022/07/05 06:45:05;;;;;;;22.40;11.93;;;;;;;25.79;65.76;93282.00;5008930;28;20445;-80
2022/07/05 06:47:33;;;;;;;23.83;12.43;;;;;;;26.22;61.54;93272.69;5008940;28;20053;-81
2022/07/05 06:50:02;;;;;;;25.50;11.95;;;;;;;26.94;61.86;93287.53;5008932;28;20553;-82
2022/07/05 06:52:29;;;;;;;23.90;13.25;;;;;;;27.00;57.39;93280.22;5012227;28;20046;-82
2022/07/05 06:54:56;;;;;;;26.17;12.77;;;;;;;27.60;57.45;93289.13;4998681;28;20049;-81
2022/07/05 06:57:23;;;;;;;19.80;10.73;;;;;;;27.53;54.65;93246.59;5012272;28;20099;-82
2022/07/05 06:59:51;;;;;;;20.95;10.05;;;;;;;27.98;54.84;93266.47;5012355;28;20506;-82
2022/07/05 07:02:18;;;;;;;23.88;9.57;;;;;;;28.13;53.21;93282.84;5012443;28;20046;-82
2022/07/05 07:04:47;;;;;;;19.73;8.88;;;;;;;28.52;52.99;93283.56;5010486;28;20088;-82
2022/07/05 07:09:57;;;;;;;26.00;9.55;;;;;;;28.66;51.49;93293.13;5012567;28;20045;-83
2022/07/05 07:12:24;;;;;;;28.20;9.93;;;;;;;28.62;50.73;93302.78;5012193;28;20100;-81
2022/07/05 07:14:51;;;;;;;27.33;11.20;;;;;;;28.06;53.87;93293.16;5012095;28;20501;-82
2022/07/05 07:17:18;;;;;;;31.00;10.93;;;;;;;27.70;56.76;93288.03;5012184;28;20402;-82
2022/07/05 07:19:44;;;;;;;28.05;9.85;;;;;;;27.23;55.40;93301.91;5011873;28;20641;-82
2022/07/05 07:22:12;;;;;;;25.17;9.90;;;;;;;27.33;58.48;93292.91;5011948;28;20049;-83
2022/07/05 07:24:39;;;;;;;22.23;9.10;;;;;;;27.75;55.13;93281.78;5011687;28;20054;-82
2022/07/05 07:27:07;;;;;;;25.77;9.07;;;;;;;28.45;53.11;93296.53;5011604;28;20687;-81
2022/07/05 07:29:37;;;;;;;18.02;8.80;;;;;;;28.61;52.35;93280.88;5011711;28;20133;-83
2022/07/05 07:32:05;;;;;;;24.33;7.75;;;;;;;28.73;52.57;93282.06;5011973;28;20100;-80
2022/07/05 07:34:32;;;;;;;28.05;9.15;;;;;;;29.03;48.84;93295.22;5011831;28;20058;-81
2022/07/05 07:36:59;;;;;;;25.08;9.05;;;;;;;29.55;49.54;93285.25;5011717;28;20058;-81
2022/07/05 07:39:28;;;;;;;14.95;7.88;;;;;;;29.69;48.24;93293.66;5011495;28;20068;-81
2022/07/05 07:41:54;;;;;;;14.23;7.38;;;;;;;29.71;48.25;93293.34;5011634;28;20173;-83
2022/07/05 07:44:21;;;;;;;16.58;7.93;;;;;;;29.13;49.11;93276.28;5011362;28;20103;-81
2022/07/05 07:46:48;;;;;;;13.45;6.57;;;;;;;27.81;50.00;93266.56;5011456;28;20057;-81
2022/07/05 07:49:15;;;;;;;17.50;6.18;;;;;;;28.35;50.22;93295.03;5011064;28;20046;-81
2022/07/05 07:51:42;;;;;;;12.45;6.18;;;;;;;28.39;50.01;93287.25;5011307;28;20085;-81
2022/07/05 07:54:08;;;;;;;10.02;6.82;;;;;;;28.38;49.86;93291.75;5011544;28;20050;-81
2022/07/05 07:56:37;;;;;;;14.80;6.15;;;;;;;27.98;49.62;93263.06;5010977;28;20100;-81
2022/07/05 07:59:03;;;;;;;12.80;6.70;;;;;;;27.93;49.24;93287.78;5011061;28;20453;-82
2022/07/05 08:01:31;;;;;;;14.35;6.60;;;;;;;28.76;50.16;93291.97;5011114;28;20441;-82
2022/07/05 08:03:57;;;;;;;9.45;5.20;;;;;;;29.17;47.92;93294.94;5007946;28;20414;-80
2022/07/05 08:06:26;;;;;;;8.85;5.22;;;;;;;29.94;48.37;93284.97;5005819;28;20042;-82
2022/07/05 08:08:53;;;;;;;10.68;5.97;;;;;;;30.54;45.71;93290.56;4991089;28;20046;-81
2022/07/05 08:11:20;;;;;;;11.77;4.97;;;;;;;30.80;44.42;93288.66;4990930;28;20046;-81
2022/07/05 08:13:48;;;;;;;7.88;5.05;;;;;;;30.86;43.57;93287.31;5001717;28;20041;-81
2022/07/05 08:16:15;;;;;;;6.95;4.85;;;;;;;31.14;40.54;93286.53;5008448;28;20049;-81
2022/07/05 08:21:32;;;;;;;8.50;4.93;;;;;;;32.04;41.08;93281.97;5008318;28;20053;-82
2022/07/05 08:24:00;;;;;;;10.65;4.97;;;;;;;31.79;39.84;93276.78;5007662;28;20053;-81
2022/07/05 08:26:31;;;;;;;9.73;4.93;;;;;;;31.90;41.07;93276.31;5010107;28;20133;-81
2022/07/05 08:29:02;;;;;;;7.88;5.03;;;;;;;32.13;40.03;93274.56;5010180;28;20092;-80
2022/07/05 08:31:31;;;;;;;9.32;5.10;;;;;;;30.81;41.39;93279.59;5004510;28;20049;-82
2022/07/05 08:33:58;;;;;;;10.95;4.93;;;;;;;30.00;41.31;93281.00;5007769;28;20061;-81
2022/07/05 08:36:25;;;;;;;8.25;4.28;;;;;;;29.72;41.73;93279.00;5009300;28;20120;-81
2022/07/05 08:38:52;;;;;;;8.00;4.72;;;;;;;30.15;40.87;93271.63;5009812;28;20092;-82
2022/07/05 08:41:21;;;;;;;13.20;5.43;;;;;;;30.34;41.32;93268.41;5008002;28;20502;-82
2022/07/05 08:43:50;;;;;;;8.10;4.47;;;;;;;30.21;42.33;93266.88;5010076;28;20386;-83
2022/07/05 08:46:19;;;;;;;8.07;4.63;;;;;;;30.00;41.83;93275.69;5009931;28;20041;-82
2022/07/05 08:48:49;;;;;;;11.07;5.70;;;;;;;30.63;42.56;93266.56;5000653;28;20328;-82
2022/07/05 08:51:20;;;;;;;9.65;5.45;;;;;;;30.72;42.84;93221.41;4996441;28;20050;-82
2022/07/05 08:53:48;;;;;;;7.55;5.13;;;;;;;30.99;40.92;93266.81;5010051;28;20042;-82
2022/07/05 08:56:16;;;;;;;6.43;4.80;;;;;;;31.18;42.19;93263.53;5009892;28;20046;-81
2022/07/05 08:58:43;;;;;;;7.85;4.80;;;;;;;31.56;40.97;93250.84;5010187;28;20052;-82
2022/07/05 09:01:13;;;;;;;7.85;3.97;;;;;;;31.47;41.45;93242.28;5009854;28;20049;-82
2022/07/05 09:03:47;;;;;;;5.47;4.10;;;;;;;30.96;39.35;93254.22;5009716;28;20458;-83
2022/07/05 09:06:21;;;;;;;6.03;4.53;;;;;;;31.22;40.65;93250.34;5006665;28;20108;-83
2022/07/05 09:08:49;;;;;;;5.77;3.93;;;;;;;31.25;40.15;93243.59;5009667;28;20140;-83
2022/07/05 09:11:17;;;;;;;7.97;5.15;;;;;;;31.52;39.41;93246.56;5009780;28;20287;-84
2022/07/05 09:13:49;;;;;;;8.07;4.57;;;;;;;30.89;39.61;93248.72;5008479;28;20544;-84
2022/07/05 09:16:16;;;;;;;7.70;4.35;;;;;;;30.83;41.00;93219.03;5009835;28;20042;-81
2022/07/05 09:18:46;;;;;;;12.52;4.50;;;;;;;31.63;39.30;93231.66;5009904;28;20046;-84
2022/07/05 09:21:14;;;;;;;7.07;5.07;;;;;;;31.56;39.12;93213.66;5009564;28;20568;-83
2022/07/05 09:23:42;;;;;;;8.65;5.25;;;;;;;32.09;39.57;93233.88;5009270;28;20050;-83
2022/07/05 09:26:09;;;;;;;8.30;5.03;;;;;;;32.75;38.27;93232.56;5009452;28;20145;-84
2022/07/05 09:28:36;;;;;;;9.88;5.05;;;;;;;32.26;39.83;93234.59;5009315;28;20152;-82
2022/07/05 09:31:03;;;;;;;14.70;6.20;;;;;;;32.36;40.20;93230.63;5009403;28;20053;-83
2022/07/05 09:33:29;;;;;;;8.77;5.55;;;;;;;32.10;40.20;93224.78;5009447;28;20046;-82
2022/07/05 09:35:58;;;;;;;12.65;5.97;;;;;;;32.30;39.17;93222.16;5009214;28;20069;-81
2022/07/05 09:38:26;;;;;;;11.73;5.85;;;;;;;32.83;40.10;93217.50;5009144;28;20081;-82
2022/07/05 09:40:54;;;;;;;11.27;6.10;;;;;;;33.19;38.42;93216.28;5009255;28;20163;-83
2022/07/05 09:43:22;;;;;;;13.20;5.90;;;;;;;33.78;37.92;93218.00;5009216;28;20049;-82
2022/07/05 09:45:54;;;;;;;16.50;6.35;;;;;;;34.26;37.76;93216.81;5009244;28;20486;-83
2022/07/05 09:48:21;;;;;;;9.80;4.95;;;;;;;34.65;37.04;93216.56;5009371;28;20112;-83
2022/07/05 09:50:50;;;;;;;8.68;5.22;;;;;;;34.25;37.81;93208.03;5009400;28;20072;-82
2022/07/05 09:53:18;;;;;;;8.38;5.07;;;;;;;33.10;37.60;93199.03;5009640;28;20046;-81
2022/07/05 09:56:04;;;;;;;11.60;4.82;;;;;;;32.88;36.68;93179.97;5009698;28;20046;-81
2022/07/05 09:58:32;;;;;;;10.25;5.45;;;;;;;32.22;37.07;93210.59;5009066;28;20050;-81
2022/07/05 10:01:02;;;;;;;9.55;5.40;;;;;;;32.29;39.92;93186.06;5008708;28;20057;-83
2022/07/05 10:03:29;;;;;;;15.35;5.07;;;;;;;32.23;41.66;93153.69;5004219;28;20064;-82
2022/07/05 10:06:11;;;;;;;11.23;4.90;;;;;;;32.93;41.57;93190.34;4999872;28;20057;-81
2022/07/05 10:08:40;;;;;;;6.80;4.93;;;;;;;33.29;40.48;93168.94;4994489;28;20096;-83
2022/07/05 10:11:07;;;;;;;7.72;5.53;;;;;;;33.62;38.81;93191.53;5007860;28;20504;-83
2022/07/05 10:13:34;;;;;;;8.90;4.80;;;;;;;33.07;36.91;93186.44;5008773;28;20449;-83
2022/07/05 10:16:00;;;;;;;8.52;5.30;;;;;;;33.14;38.50;93178.56;5008814;28;20112;-81
2022/07/05 10:18:31;;;;;;;7.63;4.82;;;;;;;32.20;41.96;93188.16;5009028;28;20049;-82
2022/07/05 10:21:00;;;;;;;8.35;4.65;;;;;;;31.97;42.76;93178.97;5009549;28;20054;-81
2022/07/05 10:23:28;;;;;;;6.40;5.38;;;;;;;32.45;42.14;93174.63;5008862;28;20046;-82
2022/07/05 10:25:58;;;;;;;6.65;4.85;;;;;;;32.86;40.68;93182.25;5009629;28;20042;-82
2022/07/05 10:28:25;;;;;;;8.02;5.03;;;;;;;32.19;41.86;93176.75;5012745;28;20054;-83
2022/07/05 10:30:54;;;;;;;8.82;4.70;;;;;;;32.44;42.79;93181.06;5012865;28;20050;-82
2022/07/05 10:33:25;;;;;;;6.80;4.97;;;;;;;32.65;43.78;93160.22;5012275;28;20048;-83
2022/07/05 10:35:51;;;;;;;6.68;4.78;;;;;;;32.53;41.81;93170.97;5012666;28;20101;-82
2022/07/05 10:38:19;;;;;;;7.57;4.78;;;;;;;32.94;39.81;93154.63;5012850;28;20057;-83
2022/07/05 10:40:51;;;;;;;6.95;4.78;;;;;;;33.31;40.36;93169.31;5012352;28;20042;-83
2022/07/05 10:43:22;;;;;;;10.05;4.97;;;;;;;33.58;40.39;93164.06;5012402;28;20726;-83
2022/07/05 10:45:50;;;;;;;9.05;4.90;;;;;;;33.31;39.48;93172.00;5012576;28;20128;-83
2022/07/05 10:48:19;;;;;;;7.70;4.53;;;;;;;33.35;39.20;93169.41;5012489;28;20058;-82
2022/07/05 10:50:49;;;;;;;6.28;4.88;;;;;;;33.93;38.37;93165.69;5012491;28;20104;-83
2022/07/05 10:53:17;;;;;;;6.38;5.18;;;;;;;33.77;38.45;93163.22;5012510;28;20418;-83
2022/07/05 10:55:58;;;;;;;6.70;4.35;;;;;;;33.14;37.70;93165.25;5012135;28;20104;-82
2022/07/05 10:58:31;;;;;;;12.27;5.80;;;;;;;33.45;38.63;93158.91;5011943;28;20057;-82
2022/07/05 11:01:44;;;;;;;9.98;4.93;;;;;;;33.97;37.32;93155.88;5011961;28;20049;-82
2022/07/05 11:04:29;;;;;;;8.95;4.50;;;;;;;34.45;37.50;93151.13;5011739;28;20046;-85
2022/07/05 11:06:58;;;;;;;7.97;5.65;;;;;;;34.68;37.17;93134.25;4998143;28;20046;-86
2022/07/05 11:09:25;;;;;;;10.25;4.78;;;;;;;34.86;35.86;93139.78;5011856;28;20524;-86
2022/07/05 11:12:08;;;;;;;5.90;4.53;;;;;;;33.82;36.20;93149.56;5012084;28;20050;-83
2022/07/05 11:14:45;;;;;;;5.85;4.95;;;;;;;34.53;35.01;93147.44;5012121;28;20052;-83
2022/07/05 11:17:29;;;;;;;6.70;4.90;;;;;;;34.43;36.15;93134.75;4998031;28;20045;-83
2022/07/05 11:20:07;;;;;;;7.40;4.77;;;;;;;35.28;34.25;93138.66;5011924;28;20050;-83
2022/07/05 11:22:34;;;;;;;6.82;4.80;;;;;;;34.87;35.40;93134.09;5011971;28;20104;-84
2022/07/05 11:25:02;;;;;;;7.45;4.18;;;;;;;34.52;35.20;93145.88;5011814;28;20054;-84
2022/07/05 11:27:29;;;;;;;8.65;5.10;;;;;;;34.38;36.04;93131.25;5011592;28;20129;-82
2022/07/05 11:29:57;;;;;;;9.60;5.10;;;;;;;33.14;37.35;93143.97;5011998;28;20457;-82
2022/07/05 11:32:36;;;;;;;5.80;4.97;;;;;;;33.32;38.05;93122.97;5011434;28;20046;-83
2022/07/05 11:35:14;;;;;;;8.85;5.10;;;;;;;32.28;39.70;93127.94;5011258;28;20053;-81